La Union, New Mexico
Current Conditions -  °F | °C
As of 10:58 AM on Thursday 29 Jan 2015 (Local Time) from KBIF Reporting Station
Overcast Overcast  
Wind Chill: 58°   Ceiling: 11000
Heat Index: 58°   Visibility: 10mi
Dew Point: 35°   Wind: 8mph
Humidity: 42%   Direction: 360°N
Pressure: 30.32"   Gusts: NA
Location:  32.025°N, 106.63°W
Report Text: KBIF 291758Z 36007KT 320V050 10SM FEW090 OVC110 14/02 A3032 RMK AO2A ACSL DSNT S SLP238 T01430015 10144 20065 51017 $
Loading
Personal Weather Stations






























Interactive Weather Map New forecast layout! Learn more

10-Day Weather Forecast

Advertisements
Track Severe Weather on mobile